sensor_id;sensor_type;location;lat;lon;timestamp;temperature;humidity
1700;DHT22;847;48.058;7.810;2022-11-11T00:00:38;7.80;99.00
1700;DHT22;847;48.058;7.810;2022-11-11T00:03:05;7.80;99.00
1700;DHT22;847;48.058;7.810;2022-11-11T00:05:33;7.80;99.00
1700;DHT22;847;48.058;7.810;2022-11-11T00:08:00;7.70;99.00
1700;DHT22;847;48.058;7.810;2022-11-11T00:10:28;7.70;99.00
1700;DHT22;847;48.058;7.810;2022-11-11T00:12:59;7.70;99.00
1700;DHT22;847;48.058;7.810;2022-11-11T00:15:26;7.60;99.00
1700;DHT22;847;48.058;7.810;2022-11-11T00:17:53;7.60;99.00
1700;DHT22;847;48.058;7.810;2022-11-11T00:20:38;7.60;99.00
1700;DHT22;847;48.058;7.810;2022-11-11T00:23:24;7.60;99.00
1700;DHT22;847;48.058;7.810;2022-11-11T00:26:10;7.60;99.00
1700;DHT22;847;48.058;7.810;2022-11-11T00:28:40;7.60;99.00
1700;DHT22;847;48.058;7.810;2022-11-11T00:31:09;7.50;99.00
1700;DHT22;847;48.058;7.810;2022-11-11T00:33:36;7.50;99.00
1700;DHT22;847;48.058;7.810;2022-11-11T00:36:04;7.50;99.00
1700;DHT22;847;48.058;7.810;2022-11-11T00:38:30;7.40;99.00
1700;DHT22;847;48.058;7.810;2022-11-11T00:41:16;7.40;99.00
1700;DHT22;847;48.058;7.810;2022-11-11T00:43:45;7.40;99.00
1700;DHT22;847;48.058;7.810;2022-11-11T00:46:13;7.40;99.00
1700;DHT22;847;48.058;7.810;2022-11-11T00:48:58;7.40;99.00
1700;DHT22;847;48.058;7.810;2022-11-11T00:51:43;7.40;99.00
1700;DHT22;847;48.058;7.810;2022-11-11T00:54:10;7.40;99.00
1700;DHT22;847;48.058;7.810;2022-11-11T00:56:38;7.30;99.00
1700;DHT22;847;48.058;7.810;2022-11-11T00:59:07;7.30;99.00
1700;DHT22;847;48.058;7.810;2022-11-11T01:01:36;7.40;99.00
1700;DHT22;847;48.058;7.810;2022-11-11T01:04:03;7.40;99.00
1700;DHT22;847;48.058;7.810;2022-11-11T01:06:30;7.40;99.00
1700;DHT22;847;48.058;7.810;2022-11-11T01:09:00;7.30;99.00
1700;DHT22;847;48.058;7.810;2022-11-11T01:11:30;7.20;99.00
1700;DHT22;847;48.058;7.810;2022-11-11T01:13:56;7.20;99.00
1700;DHT22;847;48.058;7.810;2022-11-11T01:16:26;7.20;99.00
1700;DHT22;847;48.058;7.810;2022-11-11T01:18:54;7.10;99.00
1700;DHT22;847;48.058;7.810;2022-11-11T01:21:22;7.10;99.00
1700;DHT22;847;48.058;7.810;2022-11-11T01:23:50;7.10;99.00
1700;DHT22;847;48.058;7.810;2022-11-11T01:26:19;7.10;99.00
1700;DHT22;847;48.058;7.810;2022-11-11T01:28:48;7.10;99.00
1700;DHT22;847;48.058;7.810;2022-11-11T01:31:17;7.00;99.00
1700;DHT22;847;48.058;7.810;2022-11-11T01:33:46;7.00;99.00
1700;DHT22;847;48.058;7.810;2022-11-11T01:36:15;7.00;99.00
1700;DHT22;847;48.058;7.810;2022-11-11T01:38:42;6.90;99.00
1700;DHT22;847;48.058;7.810;2022-11-11T01:41:12;6.90;99.00
1700;DHT22;847;48.058;7.810;2022-11-11T01:43:57;6.80;99.00
1700;DHT22;847;48.058;7.810;2022-11-11T01:46:28;6.80;99.00
1700;DHT22;847;48.058;7.810;2022-11-11T01:49:12;6.80;99.00
1700;DHT22;847;48.058;7.810;2022-11-11T01:51:50;6.80;99.00
1700;DHT22;847;48.058;7.810;2022-11-11T01:54:21;6.80;99.00
1700;DHT22;847;48.058;7.810;2022-11-11T01:56:55;6.80;99.00
1700;DHT22;847;48.058;7.810;2022-11-11T01:59:24;6.80;99.00
1700;DHT22;847;48.058;7.810;2022-11-11T02:01:52;6.80;99.00
1700;DHT22;847;48.058;7.810;2022-11-11T02:04:20;6.80;99.00
1700;DHT22;847;48.058;7.810;2022-11-11T02:07:08;6.90;99.00
1700;DHT22;847;48.058;7.810;2022-11-11T02:09:37;6.90;99.00
1700;DHT22;847;48.058;7.810;2022-11-11T02:12:08;7.00;99.00
1700;DHT22;847;48.058;7.810;2022-11-11T02:14:54;6.90;99.00
1700;DHT22;847;48.058;7.810;2022-11-11T02:17:23;6.80;99.00
1700;DHT22;847;48.058;7.810;2022-11-11T02:19:55;6.70;99.00
1700;DHT22;847;48.058;7.810;2022-11-11T02:22:29;6.70;99.00
1700;DHT22;847;48.058;7.810;2022-11-11T02:25:01;6.70;99.00
1700;DHT22;847;48.058;7.810;2022-11-11T02:27:30;6.80;99.00
1700;DHT22;847;48.058;7.810;2022-11-11T02:29:59;6.70;99.00
1700;DHT22;847;48.058;7.810;2022-11-11T02:32:27;6.70;99.00
1700;DHT22;847;48.058;7.810;2022-11-11T02:34:53;6.60;99.00
1700;DHT22;847;48.058;7.810;2022-11-11T02:37:22;6.60;99.00
1700;DHT22;847;48.058;7.810;2022-11-11T02:39:51;6.60;99.00
1700;DHT22;847;48.058;7.810;2022-11-11T02:42:22;6.60;99.00
1700;DHT22;847;48.058;7.810;2022-11-11T02:44:49;6.60;99.00
1700;DHT22;847;48.058;7.810;2022-11-11T02:47:23;6.60;99.00
1700;DHT22;847;48.058;7.810;2022-11-11T02:49:50;6.50;99.00
1700;DHT22;847;48.058;7.810;2022-11-11T02:52:17;6.60;99.00
1700;DHT22;847;48.058;7.810;2022-11-11T02:54:43;6.60;99.00
1700;DHT22;847;48.058;7.810;2022-11-11T02:57:11;6.50;99.00
1700;DHT22;847;48.058;7.810;2022-11-11T02:59:39;6.50;99.00
1700;DHT22;847;48.058;7.810;2022-11-11T03:02:07;6.40;99.00
1700;DHT22;847;48.058;7.810;2022-11-11T03:04:34;6.40;99.00
1700;DHT22;847;48.058;7.810;2022-11-11T03:07:03;6.40;99.00
1700;DHT22;847;48.058;7.810;2022-11-11T03:09:30;6.50;99.00
1700;DHT22;847;48.058;7.810;2022-11-11T03:11:57;6.60;99.00
1700;DHT22;847;48.058;7.810;2022-11-11T03:14:24;6.50;99.00
1700;DHT22;847;48.058;7.810;2022-11-11T03:16:53;6.50;99.00
1700;DHT22;847;48.058;7.810;2022-11-11T03:19:37;6.60;99.00
1700;DHT22;847;48.058;7.810;2022-11-11T03:22:04;6.50;99.00
1700;DHT22;847;48.058;7.810;2022-11-11T03:24:30;6.40;99.00
1700;DHT22;847;48.058;7.810;2022-11-11T03:27:11;6.30;99.00
1700;DHT22;847;48.058;7.810;2022-11-11T03:29:38;6.30;99.00
1700;DHT22;847;48.058;7.810;2022-11-11T03:32:07;6.20;99.00
1700;DHT22;847;48.058;7.810;2022-11-11T03:34:34;6.20;99.00
1700;DHT22;847;48.058;7.810;2022-11-11T03:37:01;6.20;99.00
1700;DHT22;847;48.058;7.810;2022-11-11T03:39:45;6.20;99.00
1700;DHT22;847;48.058;7.810;2022-11-11T03:42:12;6.10;99.00
1700;DHT22;847;48.058;7.810;2022-11-11T03:44:38;6.00;99.00
1700;DHT22;847;48.058;7.810;2022-11-11T03:47:06;6.10;99.00
1700;DHT22;847;48.058;7.810;2022-11-11T03:49:33;6.30;99.00
1700;DHT22;847;48.058;7.810;2022-11-11T03:52:00;6.30;99.00
1700;DHT22;847;48.058;7.810;2022-11-11T03:54:27;6.30;99.00
1700;DHT22;847;48.058;7.810;2022-11-11T03:56:53;6.30;99.00
1700;DHT22;847;48.058;7.810;2022-11-11T03:59:41;6.20;99.00
1700;DHT22;847;48.058;7.810;2022-11-11T04:02:11;6.10;99.00
1700;DHT22;847;48.058;7.810;2022-11-11T04:04:56;6.10;99.00
1700;DHT22;847;48.058;7.810;2022-11-11T04:07:40;6.10;99.00
1700;DHT22;847;48.058;7.810;2022-11-11T04:10:25;6.20;99.00
1700;DHT22;847;48.058;7.810;2022-11-11T04:12:53;6.10;99.00
1700;DHT22;847;48.058;7.810;2022-11-11T04:15:38;6.00;99.00
1700;DHT22;847;48.058;7.810;2022-11-11T04:18:23;6.00;99.00
1700;DHT22;847;48.058;7.810;2022-11-11T04:21:04;6.00;99.00
1700;DHT22;847;48.058;7.810;2022-11-11T04:23:48;6.00;99.00
1700;DHT22;847;48.058;7.810;2022-11-11T04:26:15;5.90;99.00
1700;DHT22;847;48.058;7.810;2022-11-11T04:28:41;5.90;99.00
1700;DHT22;847;48.058;7.810;2022-11-11T04:31:25;5.90;99.00
1700;DHT22;847;48.058;7.810;2022-11-11T04:33:53;6.00;99.00
1700;DHT22;847;48.058;7.810;2022-11-11T04:36:19;6.00;99.00
1700;DHT22;847;48.058;7.810;2022-11-11T04:38:45;6.00;99.00
1700;DHT22;847;48.058;7.810;2022-11-11T04:41:30;6.00;99.00
1700;DHT22;847;48.058;7.810;2022-11-11T04:43:56;6.00;99.00
1700;DHT22;847;48.058;7.810;2022-11-11T04:46:40;6.00;99.00
1700;DHT22;847;48.058;7.810;2022-11-11T04:49:09;5.80;99.00
1700;DHT22;847;48.058;7.810;2022-11-11T04:51:36;5.80;99.00
1700;DHT22;847;48.058;7.810;2022-11-11T04:54:16;5.90;99.00
1700;DHT22;847;48.058;7.810;2022-11-11T04:56:43;5.90;99.00
1700;DHT22;847;48.058;7.810;2022-11-11T04:59:12;5.80;99.00
1700;DHT22;847;48.058;7.810;2022-11-11T05:01:42;5.80;99.00
1700;DHT22;847;48.058;7.810;2022-11-11T05:04:39;5.80;99.00
1700;DHT22;847;48.058;7.810;2022-11-11T05:07:06;5.80;99.00
1700;DHT22;847;48.058;7.810;2022-11-11T05:09:50;5.80;99.00
1700;DHT22;847;48.058;7.810;2022-11-11T05:12:17;5.80;99.00
1700;DHT22;847;48.058;7.810;2022-11-11T05:14:43;5.80;99.00
1700;DHT22;847;48.058;7.810;2022-11-11T05:17:33;5.70;99.00
1700;DHT22;847;48.058;7.810;2022-11-11T05:20:19;5.60;99.00
1700;DHT22;847;48.058;7.810;2022-11-11T05:23:03;5.60;99.00
1700;DHT22;847;48.058;7.810;2022-11-11T05:25:30;5.60;99.00
1700;DHT22;847;48.058;7.810;2022-11-11T05:27:58;5.70;99.00
1700;DHT22;847;48.058;7.810;2022-11-11T05:30:25;5.80;99.00
1700;DHT22;847;48.058;7.810;2022-11-11T05:32:53;5.70;99.00
1700;DHT22;847;48.058;7.810;2022-11-11T05:35:22;5.60;99.00
1700;DHT22;847;48.058;7.810;2022-11-11T05:37:49;5.60;99.00
1700;DHT22;847;48.058;7.810;2022-11-11T05:40:29;5.60;99.00
1700;DHT22;847;48.058;7.810;2022-11-11T05:42:56;5.70;99.00
1700;DHT22;847;48.058;7.810;2022-11-11T05:45:23;5.70;99.00
1700;DHT22;847;48.058;7.810;2022-11-11T05:47:49;5.70;99.00
1700;DHT22;847;48.058;7.810;2022-11-11T05:50:16;5.80;99.00
1700;DHT22;847;48.058;7.810;2022-11-11T05:52:47;5.90;99.00
1700;DHT22;847;48.058;7.810;2022-11-11T05:55:15;5.90;99.00
1700;DHT22;847;48.058;7.810;2022-11-11T05:57:41;5.80;99.00
1700;DHT22;847;48.058;7.810;2022-11-11T06:00:09;5.80;99.00
1700;DHT22;847;48.058;7.810;2022-11-11T06:02:36;5.80;99.00
1700;DHT22;847;48.058;7.810;2022-11-11T06:05:04;5.80;99.00
1700;DHT22;847;48.058;7.810;2022-11-11T06:07:32;5.70;99.00
1700;DHT22;847;48.058;7.810;2022-11-11T06:10:00;5.70;99.00
1700;DHT22;847;48.058;7.810;2022-11-11T06:12:41;5.70;99.00
1700;DHT22;847;48.058;7.810;2022-11-11T06:15:22;5.70;99.00
1700;DHT22;847;48.058;7.810;2022-11-11T06:17:48;5.80;99.00
1700;DHT22;847;48.058;7.810;2022-11-11T06:20:15;5.80;99.00
1700;DHT22;847;48.058;7.810;2022-11-11T06:22:42;5.80;99.00
1700;DHT22;847;48.058;7.810;2022-11-11T06:25:27;5.80;99.00
1700;DHT22;847;48.058;7.810;2022-11-11T06:28:12;5.80;99.00
1700;DHT22;847;48.058;7.810;2022-11-11T06:30:40;5.80;99.00
1700;DHT22;847;48.058;7.810;2022-11-11T06:33:08;5.80;99.00
1700;DHT22;847;48.058;7.810;2022-11-11T06:35:35;5.70;99.00
1700;DHT22;847;48.058;7.810;2022-11-11T06:38:03;5.70;99.00
1700;DHT22;847;48.058;7.810;2022-11-11T06:40:32;5.70;99.00
1700;DHT22;847;48.058;7.810;2022-11-11T06:42:59;5.70;99.00
1700;DHT22;847;48.058;7.810;2022-11-11T06:45:28;5.70;99.00
1700;DHT22;847;48.058;7.810;2022-11-11T07:11:14;5.40;99.00
1700;DHT22;847;48.058;7.810;2022-11-11T07:44:47;6.10;99.00
1700;DHT22;847;48.058;7.810;2022-11-11T07:47:14;6.20;99.00
1700;DHT22;847;48.058;7.810;2022-11-11T07:49:40;6.20;99.00
1700;DHT22;847;48.058;7.810;2022-11-11T07:52:07;6.20;99.00
1700;DHT22;847;48.058;7.810;2022-11-11T07:54:34;6.30;99.00
1700;DHT22;847;48.058;7.810;2022-11-11T07:57:00;6.30;99.00
1700;DHT22;847;48.058;7.810;2022-11-11T07:59:27;6.40;99.00
1700;DHT22;847;48.058;7.810;2022-11-11T08:01:55;6.40;99.00
1700;DHT22;847;48.058;7.810;2022-11-11T08:04:22;6.50;99.00
1700;DHT22;847;48.058;7.810;2022-11-11T08:06:49;6.60;99.00
1700;DHT22;847;48.058;7.810;2022-11-11T08:09:15;6.60;99.00
1700;DHT22;847;48.058;7.810;2022-11-11T08:11:42;6.60;99.00
1700;DHT22;847;48.058;7.810;2022-11-11T08:14:26;6.80;99.00
1700;DHT22;847;48.058;7.810;2022-11-11T08:16:55;7.20;99.00
1700;DHT22;847;48.058;7.810;2022-11-11T08:19:21;7.40;99.00
1700;DHT22;847;48.058;7.810;2022-11-11T08:21:50;7.50;99.00
1700;DHT22;847;48.058;7.810;2022-11-11T08:24:17;7.70;99.00
1700;DHT22;847;48.058;7.810;2022-11-11T08:26:44;7.80;99.00
1700;DHT22;847;48.058;7.810;2022-11-11T08:29:12;7.80;99.00
1700;DHT22;847;48.058;7.810;2022-11-11T08:31:40;8.00;99.00
1700;DHT22;847;48.058;7.810;2022-11-11T08:34:09;8.10;99.00
1700;DHT22;847;48.058;7.810;2022-11-11T08:36:37;8.10;99.00
1700;DHT22;847;48.058;7.810;2022-11-11T08:39:05;8.40;99.00
1700;DHT22;847;48.058;7.810;2022-11-11T08:41:32;8.50;99.00
1700;DHT22;847;48.058;7.810;2022-11-11T08:44:09;8.80;99.00
1700;DHT22;847;48.058;7.810;2022-11-11T08:46:44;9.20;99.00
1700;DHT22;847;48.058;7.810;2022-11-11T08:49:13;9.20;99.00
1700;DHT22;847;48.058;7.810;2022-11-11T08:51:40;9.10;99.00
1700;DHT22;847;48.058;7.810;2022-11-11T08:54:07;9.10;99.00
1700;DHT22;847;48.058;7.810;2022-11-11T08:56:35;9.20;99.00
1700;DHT22;847;48.058;7.810;2022-11-11T08:59:02;9.30;99.00
1700;DHT22;847;48.058;7.810;2022-11-11T09:01:30;9.40;99.00
1700;DHT22;847;48.058;7.810;2022-11-11T09:03:57;9.50;99.00
1700;DHT22;847;48.058;7.810;2022-11-11T09:06:27;9.60;99.00
1700;DHT22;847;48.058;7.810;2022-11-11T09:08:54;9.60;99.00
1700;DHT22;847;48.058;7.810;2022-11-11T09:11:24;9.50;99.00
1700;DHT22;847;48.058;7.810;2022-11-11T09:14:03;9.60;99.00
1700;DHT22;847;48.058;7.810;2022-11-11T09:16:45;9.60;99.00
1700;DHT22;847;48.058;7.810;2022-11-11T09:19:21;9.60;99.00
1700;DHT22;847;48.058;7.810;2022-11-11T09:21:51;9.50;99.00
1700;DHT22;847;48.058;7.810;2022-11-11T09:24:18;9.60;99.00
1700;DHT22;847;48.058;7.810;2022-11-11T09:26:46;9.70;99.00
1700;DHT22;847;48.058;7.810;2022-11-11T09:29:13;9.80;99.00
1700;DHT22;847;48.058;7.810;2022-11-11T09:31:40;10.00;99.00
1700;DHT22;847;48.058;7.810;2022-11-11T09:34:07;10.10;99.00
1700;DHT22;847;48.058;7.810;2022-11-11T09:36:34;10.20;99.00
1700;DHT22;847;48.058;7.810;2022-11-11T09:39:02;10.30;99.00
1700;DHT22;847;48.058;7.810;2022-11-11T09:41:36;10.30;99.00
1700;DHT22;847;48.058;7.810;2022-11-11T09:47:03;10.30;99.00
1700;DHT22;847;48.058;7.810;2022-11-11T09:49:43;10.50;99.00
1700;DHT22;847;48.058;7.810;2022-11-11T09:52:17;10.70;99.00
1700;DHT22;847;48.058;7.810;2022-11-11T09:54:51;10.80;99.00
1700;DHT22;847;48.058;7.810;2022-11-11T09:57:22;10.80;99.00
1700;DHT22;847;48.058;7.810;2022-11-11T09:59:54;10.80;99.00
1700;DHT22;847;48.058;7.810;2022-11-11T10:02:29;10.70;99.00
1700;DHT22;847;48.058;7.810;2022-11-11T10:05:04;10.80;99.00
1700;DHT22;847;48.058;7.810;2022-11-11T10:07:36;10.80;99.00
1700;DHT22;847;48.058;7.810;2022-11-11T10:10:16;10.70;99.00
1700;DHT22;847;48.058;7.810;2022-11-11T10:12:48;10.70;99.00
1700;DHT22;847;48.058;7.810;2022-11-11T10:15:15;10.90;99.00
1700;DHT22;847;48.058;7.810;2022-11-11T10:17:50;11.00;99.00
1700;DHT22;847;48.058;7.810;2022-11-11T10:20:22;11.00;99.00
1700;DHT22;847;48.058;7.810;2022-11-11T10:22:55;11.10;99.00
1700;DHT22;847;48.058;7.810;2022-11-11T10:25:27;11.00;99.00
1700;DHT22;847;48.058;7.810;2022-11-11T10:27:57;11.20;99.00
1700;DHT22;847;48.058;7.810;2022-11-11T10:30:26;11.20;99.00
1700;DHT22;847;48.058;7.810;2022-11-11T10:32:56;11.20;99.00
1700;DHT22;847;48.058;7.810;2022-11-11T10:35:25;11.20;99.00
1700;DHT22;847;48.058;7.810;2022-11-11T10:38:00;11.30;99.00
1700;DHT22;847;48.058;7.810;2022-11-11T10:40:35;11.40;99.00
1700;DHT22;847;48.058;7.810;2022-11-11T10:43:03;11.30;99.00
1700;DHT22;847;48.058;7.810;2022-11-11T10:45:36;11.20;99.00
1700;DHT22;847;48.058;7.810;2022-11-11T10:48:06;11.20;99.00
1700;DHT22;847;48.058;7.810;2022-11-11T10:50:37;11.10;99.00
1700;DHT22;847;48.058;7.810;2022-11-11T10:53:11;11.10;99.00
1700;DHT22;847;48.058;7.810;2022-11-11T10:55:45;11.10;99.00
1700;DHT22;847;48.058;7.810;2022-11-11T10:58:17;11.10;99.00
1700;DHT22;847;48.058;7.810;2022-11-11T11:00:47;11.10;99.00
1700;DHT22;847;48.058;7.810;2022-11-11T11:03:21;11.10;99.00
1700;DHT22;847;48.058;7.810;2022-11-11T11:05:53;11.20;99.00
1700;DHT22;847;48.058;7.810;2022-11-11T11:08:24;11.20;99.00
1700;DHT22;847;48.058;7.810;2022-11-11T11:10:56;11.20;99.00
1700;DHT22;847;48.058;7.810;2022-11-11T11:13:30;11.20;99.00
1700;DHT22;847;48.058;7.810;2022-11-11T11:16:03;11.20;99.00
1700;DHT22;847;48.058;7.810;2022-11-11T11:18:32;11.20;99.00
1700;DHT22;847;48.058;7.810;2022-11-11T11:21:00;11.30;99.00
1700;DHT22;847;48.058;7.810;2022-11-11T11:23:39;11.40;99.00
1700;DHT22;847;48.058;7.810;2022-11-11T11:26:08;11.40;99.00
1700;DHT22;847;48.058;7.810;2022-11-11T11:28:52;11.40;99.00
1700;DHT22;847;48.058;7.810;2022-11-11T11:31:33;11.40;99.00
1700;DHT22;847;48.058;7.810;2022-11-11T11:34:01;11.40;99.00
1700;DHT22;847;48.058;7.810;2022-11-11T11:36:28;11.40;99.00
1700;DHT22;847;48.058;7.810;2022-11-11T11:38:55;11.40;99.00
1700;DHT22;847;48.058;7.810;2022-11-11T11:41:36;11.40;99.00
1700;DHT22;847;48.058;7.810;2022-11-11T11:44:23;11.50;99.00
1700;DHT22;847;48.058;7.810;2022-11-11T11:46:51;11.50;99.00
1700;DHT22;847;48.058;7.810;2022-11-11T11:49:28;11.50;99.00
1700;DHT22;847;48.058;7.810;2022-11-11T11:52:04;11.60;99.00
1700;DHT22;847;48.058;7.810;2022-11-11T11:54:53;11.70;99.00
1700;DHT22;847;48.058;7.810;2022-11-11T11:57:34;11.70;99.00
1700;DHT22;847;48.058;7.810;2022-11-11T12:00:13;11.70;99.00
1700;DHT22;847;48.058;7.810;2022-11-11T12:03:03;11.80;99.00
1700;DHT22;847;48.058;7.810;2022-11-11T12:05:38;11.80;99.00
1700;DHT22;847;48.058;7.810;2022-11-11T12:08:20;11.90;99.00
1700;DHT22;847;48.058;7.810;2022-11-11T12:10:52;12.00;99.00
1700;DHT22;847;48.058;7.810;2022-11-11T12:13:30;12.00;99.00
1700;DHT22;847;48.058;7.810;2022-11-11T12:16:07;12.00;99.00
1700;DHT22;847;48.058;7.810;2022-11-11T12:18:48;12.00;99.00
1700;DHT22;847;48.058;7.810;2022-11-11T12:21:19;12.00;99.00
1700;DHT22;847;48.058;7.810;2022-11-11T12:23:56;12.10;99.00
1700;DHT22;847;48.058;7.810;2022-11-11T12:26:28;12.10;99.00
1700;DHT22;847;48.058;7.810;2022-11-11T12:29:12;12.10;99.00
1700;DHT22;847;48.058;7.810;2022-11-11T12:31:54;12.20;99.00
1700;DHT22;847;48.058;7.810;2022-11-11T12:34:32;12.20;99.00
1700;DHT22;847;48.058;7.810;2022-11-11T12:37:09;12.30;99.00
1700;DHT22;847;48.058;7.810;2022-11-11T12:39:54;12.30;99.00
1700;DHT22;847;48.058;7.810;2022-11-11T12:42:33;12.30;99.00
1700;DHT22;847;48.058;7.810;2022-11-11T12:45:14;12.30;99.00
1700;DHT22;847;48.058;7.810;2022-11-11T12:47:51;12.30;99.00
1700;DHT22;847;48.058;7.810;2022-11-11T12:50:25;12.30;99.00
1700;DHT22;847;48.058;7.810;2022-11-11T12:53:09;12.40;99.00
1700;DHT22;847;48.058;7.810;2022-11-11T12:55:46;12.40;99.00
1700;DHT22;847;48.058;7.810;2022-11-11T12:58:24;12.40;99.00
1700;DHT22;847;48.058;7.810;2022-11-11T13:01:07;12.40;99.00
1700;DHT22;847;48.058;7.810;2022-11-11T13:03:50;12.40;99.00
1700;DHT22;847;48.058;7.810;2022-11-11T13:09:28;12.40;98.90
1700;DHT22;847;48.058;7.810;2022-11-11T13:12:05;12.40;98.60
1700;DHT22;847;48.058;7.810;2022-11-11T13:14:44;12.50;98.90
1700;DHT22;847;48.058;7.810;2022-11-11T13:17:15;12.50;98.00
1700;DHT22;847;48.058;7.810;2022-11-11T13:19:45;12.50;98.10
1700;DHT22;847;48.058;7.810;2022-11-11T13:22:21;12.50;97.80
1700;DHT22;847;48.058;7.810;2022-11-11T13:24:49;12.50;97.90
1700;DHT22;847;48.058;7.810;2022-11-11T13:27:23;12.50;97.50
1700;DHT22;847;48.058;7.810;2022-11-11T13:30:04;12.50;97.40
1700;DHT22;847;48.058;7.810;2022-11-11T13:32:36;12.50;96.60
1700;DHT22;847;48.058;7.810;2022-11-11T13:35:17;12.50;96.80
1700;DHT22;847;48.058;7.810;2022-11-11T13:37:45;12.50;97.70
1700;DHT22;847;48.058;7.810;2022-11-11T13:40:25;12.50;97.90
1700;DHT22;847;48.058;7.810;2022-11-11T13:42:54;12.40;99.00
1700;DHT22;847;48.058;7.810;2022-11-11T13:45:26;12.40;98.80
1700;DHT22;847;48.058;7.810;2022-11-11T13:47:56;12.40;99.00
1700;DHT22;847;48.058;7.810;2022-11-11T13:50:26;12.40;99.00
1700;DHT22;847;48.058;7.810;2022-11-11T13:52:58;12.70;99.00
1700;DHT22;847;48.058;7.810;2022-11-11T13:55:31;12.90;98.00
1700;DHT22;847;48.058;7.810;2022-11-11T13:57:59;13.00;97.20
1700;DHT22;847;48.058;7.810;2022-11-11T14:00:30;13.20;97.30
1700;DHT22;847;48.058;7.810;2022-11-11T14:03:35;13.50;97.00
1700;DHT22;847;48.058;7.810;2022-11-11T14:12:31;14.00;95.10
1700;DHT22;847;48.058;7.810;2022-11-11T14:14:59;14.00;92.90
1700;DHT22;847;48.058;7.810;2022-11-11T14:17:27;13.90;92.30
1700;DHT22;847;48.058;7.810;2022-11-11T14:19:56;14.00;92.30
1700;DHT22;847;48.058;7.810;2022-11-11T14:22:28;14.10;92.90
1700;DHT22;847;48.058;7.810;2022-11-11T14:25:10;14.30;92.30
1700;DHT22;847;48.058;7.810;2022-11-11T14:27:43;14.30;90.80
1700;DHT22;847;48.058;7.810;2022-11-11T14:30:35;14.40;90.30
1700;DHT22;847;48.058;7.810;2022-11-11T14:33:09;14.50;91.20
1700;DHT22;847;48.058;7.810;2022-11-11T14:35:43;14.50;92.10
1700;DHT22;847;48.058;7.810;2022-11-11T14:38:24;14.40;92.50
1700;DHT22;847;48.058;7.810;2022-11-11T14:40:53;14.20;92.60
1700;DHT22;847;48.058;7.810;2022-11-11T14:43:35;14.40;92.80
1700;DHT22;847;48.058;7.810;2022-11-11T14:46:07;14.40;92.10
1700;DHT22;847;48.058;7.810;2022-11-11T14:48:55;14.40;92.60
1700;DHT22;847;48.058;7.810;2022-11-11T14:51:52;14.40;92.30
1700;DHT22;847;48.058;7.810;2022-11-11T14:54:35;14.30;92.80
1700;DHT22;847;48.058;7.810;2022-11-11T14:57:06;14.20;92.70
1700;DHT22;847;48.058;7.810;2022-11-11T14:59:35;14.10;93.00
1700;DHT22;847;48.058;7.810;2022-11-11T15:02:06;14.20;93.90
1700;DHT22;847;48.058;7.810;2022-11-11T15:04:39;14.10;94.30
1700;DHT22;847;48.058;7.810;2022-11-11T15:07:20;14.10;94.60
1700;DHT22;847;48.058;7.810;2022-11-11T15:10:14;14.00;94.80
1700;DHT22;847;48.058;7.810;2022-11-11T15:12:54;13.90;95.50
1700;DHT22;847;48.058;7.810;2022-11-11T15:15:25;13.90;95.50
1700;DHT22;847;48.058;7.810;2022-11-11T15:18:03;13.90;95.90
1700;DHT22;847;48.058;7.810;2022-11-11T15:20:48;13.80;96.40
1700;DHT22;847;48.058;7.810;2022-11-11T15:23:24;13.70;97.60
1700;DHT22;847;48.058;7.810;2022-11-11T15:26:01;13.70;97.60
1700;DHT22;847;48.058;7.810;2022-11-11T15:28:44;13.70;97.90
1700;DHT22;847;48.058;7.810;2022-11-11T15:31:19;14.00;97.40
1700;DHT22;847;48.058;7.810;2022-11-11T15:33:53;14.20;96.20
1700;DHT22;847;48.058;7.810;2022-11-11T15:36:33;14.00;95.80
1700;DHT22;847;48.058;7.810;2022-11-11T15:39:05;13.80;96.60
1700;DHT22;847;48.058;7.810;2022-11-11T15:41:36;13.60;97.20
1700;DHT22;847;48.058;7.810;2022-11-11T15:44:08;13.60;97.50
1700;DHT22;847;48.058;7.810;2022-11-11T15:46:40;13.80;96.60
1700;DHT22;847;48.058;7.810;2022-11-11T15:49:11;13.80;95.30
1700;DHT22;847;48.058;7.810;2022-11-11T15:51:38;13.50;96.50
1700;DHT22;847;48.058;7.810;2022-11-11T15:54:17;13.30;97.00
1700;DHT22;847;48.058;7.810;2022-11-11T15:56:44;13.20;97.40
1700;DHT22;847;48.058;7.810;2022-11-11T15:59:20;12.90;97.90
1700;DHT22;847;48.058;7.810;2022-11-11T16:01:48;13.00;97.70
1700;DHT22;847;48.058;7.810;2022-11-11T16:04:16;12.80;98.00
1700;DHT22;847;48.058;7.810;2022-11-11T16:06:44;13.00;97.80
1700;DHT22;847;48.058;7.810;2022-11-11T16:09:14;13.00;96.60
1700;DHT22;847;48.058;7.810;2022-11-11T16:11:42;12.80;96.90
1700;DHT22;847;48.058;7.810;2022-11-11T16:14:19;12.90;96.90
1700;DHT22;847;48.058;7.810;2022-11-11T16:16:47;12.90;95.70
1700;DHT22;847;48.058;7.810;2022-11-11T16:19:23;12.60;96.90
1700;DHT22;847;48.058;7.810;2022-11-11T16:21:57;12.30;97.30
1700;DHT22;847;48.058;7.810;2022-11-11T16:24:31;12.70;96.70
1700;DHT22;847;48.058;7.810;2022-11-11T16:27:00;13.00;94.80
1700;DHT22;847;48.058;7.810;2022-11-11T16:29:33;13.00;94.40
1700;DHT22;847;48.058;7.810;2022-11-11T16:32:01;12.40;96.30
1700;DHT22;847;48.058;7.810;2022-11-11T16:34:43;12.30;97.10
1700;DHT22;847;48.058;7.810;2022-11-11T16:37:11;12.10;97.60
1700;DHT22;847;48.058;7.810;2022-11-11T16:39:42;11.80;98.00
1700;DHT22;847;48.058;7.810;2022-11-11T16:42:16;12.00;97.90
1700;DHT22;847;48.058;7.810;2022-11-11T16:44:48;12.00;97.40
1700;DHT22;847;48.058;7.810;2022-11-11T16:47:46;11.80;98.30
1700;DHT22;847;48.058;7.810;2022-11-11T16:50:15;11.60;98.50
1700;DHT22;847;48.058;7.810;2022-11-11T16:52:47;11.40;99.00
1700;DHT22;847;48.058;7.810;2022-11-11T16:55:23;11.20;99.00
1700;DHT22;847;48.058;7.810;2022-11-11T16:57:51;11.10;99.00
1700;DHT22;847;48.058;7.810;2022-11-11T17:00:20;11.20;99.00
1700;DHT22;847;48.058;7.810;2022-11-11T17:02:56;11.30;99.00
1700;DHT22;847;48.058;7.810;2022-11-11T17:05:49;11.30;98.70
1700;DHT22;847;48.058;7.810;2022-11-11T17:08:31;11.20;98.90
1700;DHT22;847;48.058;7.810;2022-11-11T17:11:00;11.20;99.00
1700;DHT22;847;48.058;7.810;2022-11-11T17:13:28;11.10;99.00
1700;DHT22;847;48.058;7.810;2022-11-11T17:15:56;10.90;99.00
1700;DHT22;847;48.058;7.810;2022-11-11T17:18:24;10.90;99.00
1700;DHT22;847;48.058;7.810;2022-11-11T17:20:50;10.80;99.00
1700;DHT22;847;48.058;7.810;2022-11-11T17:23:17;10.90;99.00
1700;DHT22;847;48.058;7.810;2022-11-11T17:25:44;10.90;99.00
1700;DHT22;847;48.058;7.810;2022-11-11T17:28:13;11.00;99.00
1700;DHT22;847;48.058;7.810;2022-11-11T17:30:39;10.80;98.60
1700;DHT22;847;48.058;7.810;2022-11-11T17:33:06;10.80;99.00
1700;DHT22;847;48.058;7.810;2022-11-11T17:35:33;10.70;99.00
1700;DHT22;847;48.058;7.810;2022-11-11T17:38:00;10.50;99.00
1700;DHT22;847;48.058;7.810;2022-11-11T17:40:26;10.50;99.00
1700;DHT22;847;48.058;7.810;2022-11-11T17:42:53;10.30;99.00
1700;DHT22;847;48.058;7.810;2022-11-11T17:45:22;10.30;99.00
1700;DHT22;847;48.058;7.810;2022-11-11T17:47:48;10.50;99.00
1700;DHT22;847;48.058;7.810;2022-11-11T17:50:15;10.80;97.60
1700;DHT22;847;48.058;7.810;2022-11-11T17:52:42;10.60;98.10
1700;DHT22;847;48.058;7.810;2022-11-11T17:55:09;10.40;98.90
1700;DHT22;847;48.058;7.810;2022-11-11T17:57:36;10.20;99.00
1700;DHT22;847;48.058;7.810;2022-11-11T18:00:03;10.10;99.00
1700;DHT22;847;48.058;7.810;2022-11-11T18:02:32;10.10;99.00
1700;DHT22;847;48.058;7.810;2022-11-11T18:04:59;10.10;99.00
1700;DHT22;847;48.058;7.810;2022-11-11T18:07:26;10.00;99.00